Airfield :
LOGIN :

Register | Disclaimer

   EN    FR    IT 

 










Legend :    VFR   Marginal VFR   IFR   Intensive IFR   Very Intensive IFR
Visi :
Ceiling :
>= 8 km
>= 3000ft
5 to 8 km
1000 to 3000 ft
1500m to 5 km
500 to 1000 ft
800 to 1500m
200 to 500 ft
< 800m
< 200 ft
Symbols :   Thunderstorms  Fog  Heavy snow  Heavy precipitations  Wind > 20 kt
SIGMETs :     Misc.  Thunderstorms  Icing  Turbulence  Mountain Waves  Volcanic Ashes






- Airport Elevation : 376 ft


LHKE - Kecskemét

CURRENT METAR :
  • 030945Z 29008G17KT 220V020 CAVOK 21/08 Q1005 R12/01//95 TEMPO FEW050TCU BKN055 RMK BLU

EXPIRED METARs :
  • 030915Z 26008KT 200V310 CAVOK 21/08 Q1006 R12/01//95 TEMPO FEW050TCU BKN055 RMK BLU
  • 030845Z 32008KT 280V350 9999 SCT046 19/09 Q1006 R12/01//95 TEMPO FEW045TCU BKN050 RMK BLU
  • 030815Z 29006KT 250V340 9999 SCT045 SCT200 19/08 Q1006 R12/01//95 TEMPO FEW045TCU BKN050 RMK BLU
  • 030745Z 30008KT 250V340 9999 FEW040 19/09 Q1006 R12/01//95 NOSIG RMK BLU
  • 030715Z 31008KT 270V350 9999 FEW033 17/09 Q1006 R12/01//95 NOSIG RMK BLU
  • 030645Z 29008KT 260V320 CAVOK 16/09 Q1006 R12/01//95 NOSIG RMK BLU

TAF TAF LHKE
Valid from the 03 at 09:00 until the 03 at 18:00 UTC


030815Z 0309/0318 30008KT 9999 SCT045
BECMG 0309/0311 FEW060TCU SCT070
TEMPO 0311/0316 32012G23KT 8000 -SHRA SCT050TCU BKN060
TEMPO 0316/0318 VRB03KT CAVOK



MET'MAP, your aeronautical weather chart ! - Copyright ORBIFLY December 2007 - Disclaimer

ORBIFLY MET'MAP TEAM :

Programming & Development : Alexandra Zaïnal
Concept & original design : Baudouin d'Aumeries
Assistance for programming : Marc-Olivier Méhu
Technical & hardware support : Manuel Goepfert

Contact : metmap@orbifly.com




SOURCES & CREDITS :

   NOAA